Time;durP1;ratioP1;P1;durP2;ratioP2;P2;SDS_P1;SDS_P2;PMS_P1;PMS_P2;Temp;Humidity;BMP_temperature;BMP_pressure;BME280_temperature;BME280_humidity;BME280_pressure;Samples;Min_cycle;Max_cycle;Signal;HPM_P1;HPM_P2
2023/06/12 00:00:52;;;;;;;21.20;19.90;;;17.70;63.80;;;;;;2613485;54;20364;-70
2023/06/12 00:06:40;;;;;;;20.00;19.00;;;17.40;89.20;;;;;;2613330;54;20415;-70
2023/06/12 00:09:45;;;;;;;20.37;19.23;;;17.50;93.40;;;;;;2611611;54;20424;-70
2023/06/12 00:12:10;;;;;;;21.40;20.10;;;17.40;99.90;;;;;;2613203;54;20166;-70
2023/06/12 00:17:58;;;;;;;20.00;18.90;;;17.10;99.90;;;;;;2613154;54;20150;-70
2023/06/12 00:23:46;;;;;;;20.57;19.37;;;16.90;99.90;;;;;;2613328;54;20152;-70
2023/06/12 00:29:34;;;;;;;19.93;18.83;;;16.80;99.90;;;;;;2613260;54;20203;-71
2023/06/12 00:35:21;;;;;;;20.93;19.63;;;16.50;99.90;;;;;;2613083;54;20157;-70
2023/06/12 00:41:09;;;;;;;19.53;18.43;;;16.50;99.90;;;;;;2613479;39;20547;-71
2023/06/12 00:46:57;;;;;;;19.17;18.07;;;16.40;99.90;;;;;;2611864;54;20134;-70
2023/06/12 00:52:50;;;;;;;19.07;17.93;;;16.30;99.90;;;;;;2614432;39;20501;-69
2023/06/12 00:58:38;;;;;;;18.17;17.17;;;16.00;99.90;;;;;;2613130;54;20406;-70
2023/06/12 01:04:25;;;;;;;20.63;19.33;;;16.10;99.90;;;;;;2610785;54;20129;-70
2023/06/12 01:14:13;;;;;;;18.93;17.73;;;15.90;99.90;;;;;;2613175;54;20857;-70
2023/06/12 01:20:03;;;;;;;18.90;17.70;;;15.80;99.90;;;;;;2612619;54;20374;-71
2023/06/12 01:26:01;;;;;;;18.83;17.43;;;15.90;99.90;;;;;;2612081;54;20407;-69
2023/06/12 01:38:24;;;;;;;18.70;17.60;;;15.50;99.90;;;;;;2613255;54;20387;-70
2023/06/12 01:44:16;;;;;;;17.40;16.30;;;15.50;99.90;;;;;;2612582;54;20379;-70
2023/06/12 01:50:05;;;;;;;18.00;16.50;;;15.40;99.90;;;;;;2612695;54;20387;-70
2023/06/12 01:55:56;;;;;;;18.43;17.23;;;15.30;99.90;;;;;;2613341;54;20398;-70
2023/06/12 02:01:43;;;;;;;19.73;18.10;;;15.30;99.90;;;;;;2613971;54;20366;-70
2023/06/12 02:07:31;;;;;;;17.47;16.20;;;15.20;99.90;;;;;;2613645;54;20680;-70
2023/06/12 02:16:47;;;;;;;18.70;17.40;;;15.20;99.90;;;;;;2613667;54;21023;-71
2023/06/12 02:22:35;;;;;;;18.33;16.93;;;14.90;99.90;;;;;;2613406;54;20363;-69
2023/06/12 02:28:23;;;;;;;18.13;16.93;;;15.00;99.90;;;;;;2614094;54;20119;-70
2023/06/12 02:34:11;;;;;;;17.37;16.20;;;14.90;99.90;;;;;;2613849;54;20126;-70
2023/06/12 02:39:59;;;;;;;18.90;17.60;;;14.80;99.90;;;;;;2612323;54;20267;-75
2023/06/12 02:45:47;;;;;;;17.00;16.00;;;14.80;99.90;;;;;;2613681;54;20676;-77
2023/06/12 02:51:34;;;;;;;17.47;16.30;;;14.60;99.90;;;;;;2614553;54;20165;-77
2023/06/12 02:57:22;;;;;;;18.00;16.80;;;14.80;99.90;;;;;;2614064;54;20138;-76
2023/06/12 03:03:12;;;;;;;18.03;16.47;;;14.70;99.90;;;;;;2614341;54;20129;-77
2023/06/12 03:09:03;;;;;;;19.40;17.40;;;14.60;99.90;;;;;;2613661;54;20960;-76
2023/06/12 03:15:00;;;;;;;17.60;16.60;;;14.70;99.90;;;;;;2612234;39;20840;-77
2023/06/12 03:20:48;;;;;;;18.07;16.60;;;14.70;99.90;;;;;;2612064;54;20376;-78
2023/06/12 03:26:38;;;;;;;20.47;18.77;;;14.60;99.90;;;;;;2613077;54;20379;-77
2023/06/12 03:32:26;;;;;;;18.47;17.17;;;14.50;99.90;;;;;;2610608;39;20849;-77
2023/06/12 03:38:14;;;;;;;19.33;17.97;;;14.50;99.90;;;;;;2612700;54;20380;-77
2023/06/12 03:44:01;;;;;;;19.03;17.53;;;14.60;99.90;;;;;;2610580;54;20134;-77
2023/06/12 03:49:48;;;;;;;18.37;16.97;;;14.70;99.90;;;;;;2612210;54;20703;-78
2023/06/12 03:52:51;;;;;;;18.10;16.90;;;14.70;99.90;;;;;;2611116;47;20420;-78
2023/06/12 03:55:20;;;;;;;17.10;15.90;;;14.70;99.90;;;;;;2612969;54;20193;-77
2023/06/12 04:01:08;;;;;;;18.07;16.77;;;14.80;99.90;;;;;;2613935;39;20748;-76
2023/06/12 04:06:56;;;;;;;18.40;16.97;;;14.90;99.90;;;;;;2612444;54;20785;-77
2023/06/12 04:16:46;;;;;;;17.33;16.10;;;15.10;99.90;;;;;;2613740;54;20435;-77
2023/06/12 04:22:35;;;;;;;17.50;16.30;;;15.20;99.90;;;;;;2613421;54;20379;-76
2023/06/12 04:28:26;;;;;;;19.37;17.40;;;15.60;99.90;;;;;;2613885;54;20414;-77
2023/06/12 04:34:15;;;;;;;19.80;18.40;;;15.70;99.90;;;;;;2612392;54;20444;-77
2023/06/12 04:40:04;;;;;;;19.10;17.90;;;16.20;99.90;;;;;;2611881;54;20362;-74
2023/06/12 04:45:52;;;;;;;19.93;18.53;;;16.80;99.90;;;;;;2614130;54;20430;-74
2023/06/12 04:51:42;;;;;;;20.00;18.70;;;17.30;99.90;;;;;;2608529;54;20354;-73
2023/06/12 04:57:29;;;;;;;18.87;17.77;;;18.00;99.90;;;;;;2613566;54;20938;-74
2023/06/12 05:03:17;;;;;;;21.87;20.10;;;18.50;99.90;;;;;;2612869;54;20154;-73
2023/06/12 05:09:07;;;;;;;21.07;19.67;;;19.30;99.90;;;;;;2612673;39;21004;-74
2023/06/12 05:12:17;;;;;;;23.43;21.83;;;19.60;99.90;;;;;;2613234;47;20416;-73
2023/06/12 05:14:43;;;;;;;20.90;19.30;;;19.70;98.50;;;;;;2614298;46;21071;-73
2023/06/12 05:20:31;;;;;;;22.93;20.87;;;20.10;81.70;;;;;;2615527;39;20762;-73
2023/06/12 05:26:19;;;;;;;22.00;20.60;;;20.50;74.20;;;;;;2615049;54;20637;-73
2023/06/12 05:32:07;;;;;;;22.40;21.00;;;20.60;62.20;;;;;;2615039;54;20150;-73
2023/06/12 05:37:55;;;;;;;22.73;21.07;;;21.00;50.10;;;;;;2614094;54;20986;-73
2023/06/12 05:43:45;;;;;;;22.97;21.03;;;21.20;38.60;;;;;;2614785;54;20167;-73
2023/06/12 05:49:33;;;;;;;21.93;20.40;;;21.80;29.30;;;;;;2614160;39;20787;-72
2023/06/12 05:55:21;;;;;;;22.43;21.00;;;22.10;29.80;;;;;;2614413;54;20391;-73
2023/06/12 06:01:11;;;;;;;24.47;22.90;;;23.10;22.90;;;;;;2614147;54;20151;-73
2023/06/12 06:06:59;;;;;;;23.30;21.80;;;23.60;20.50;;;;;;2614270;54;20470;-74
2023/06/12 06:16:46;;;;;;;23.00;21.50;;;23.80;19.80;;;;;;2614808;54;20380;-73
2023/06/12 06:22:34;;;;;;;22.07;20.67;;;23.90;15.80;;;;;;2614477;54;20582;-73
2023/06/12 06:28:23;;;;;;;22.53;20.70;;;24.30;15.50;;;;;;2614419;46;20157;-73
2023/06/12 06:34:11;;;;;;;21.93;20.33;;;25.20;12.00;;;;;;2614514;54;20423;-74
2023/06/12 06:39:58;;;;;;;23.00;21.47;;;25.00;11.70;;;;;;2613650;54;20395;-73
2023/06/12 06:45:47;;;;;;;23.33;21.73;;;25.60;8.80;;;;;;2613709;54;20142;-73
2023/06/12 06:51:35;;;;;;;23.57;21.50;;;24.90;8.30;;;;;;2614380;54;21071;-73
2023/06/12 06:57:25;;;;;;;20.70;19.50;;;24.70;8.60;;;;;;2614581;54;20408;-73
2023/06/12 07:03:14;;;;;;;20.80;19.53;;;25.30;8.40;;;;;;2615458;54;20387;-73
2023/06/12 07:09:02;;;;;;;20.77;19.67;;;25.90;5.90;;;;;;2615150;54;21157;-74
2023/06/12 07:12:18;;;;;;;22.10;19.97;;;26.20;5.70;;;;;;2615695;54;20406;-76
2023/06/12 07:14:43;;;;;;;20.33;19.23;;;26.30;3.50;;;;;;2615176;54;20423;-74
2023/06/12 07:20:31;;;;;;;20.63;19.37;;;26.90;3.10;;;;;;2615127;54;20205;-73
2023/06/12 07:26:19;;;;;;;21.43;20.27;;;26.60;1.00;;;;;;2615152;54;20143;-73
2023/06/12 07:32:09;;;;;;;22.57;21.27;;;26.70;1.00;;;;;;2614996;54;20387;-74
2023/06/12 07:37:57;;;;;;;23.57;22.00;;;27.60;1.00;;;;;;2614989;54;20359;-74
2023/06/12 07:43:45;;;;;;;22.50;21.23;;;27.00;1.00;;;;;;2615436;54;20210;-74
2023/06/12 07:49:33;;;;;;;23.00;21.70;;;27.10;1.00;;;;;;2614146;54;20130;-73
2023/06/12 07:55:21;;;;;;;23.60;22.00;;;27.50;1.00;;;;;;2615175;46;20142;-73
2023/06/12 08:01:10;;;;;;;22.00;20.70;;;27.30;1.00;;;;;;2615236;54;20660;-74
2023/06/12 08:07:00;;;;;;;22.23;20.93;;;26.90;1.00;;;;;;2614961;54;20375;-74
2023/06/12 08:16:49;;;;;;;19.93;18.80;;;28.10;1.00;;;;;;2614216;54;20395;-73
2023/06/12 08:19:52;;;;;;;21.33;20.00;;;28.10;1.00;;;;;;2615128;54;20977;-74
2023/06/12 08:22:19;;;;;;;21.63;20.60;;;28.40;1.00;;;;;;2614351;54;20423;-74
2023/06/12 08:28:06;;;;;;;20.40;19.40;;;27.70;1.00;;;;;;2614870;54;21145;-72
2023/06/12 08:33:54;;;;;;;20.50;19.40;;;28.90;1.00;;;;;;2614672;54;20169;-73
2023/06/12 08:39:42;;;;;;;20.23;19.30;;;28.00;1.00;;;;;;2615147;54;20143;-74
2023/06/12 08:45:32;;;;;;;20.80;19.60;;;29.40;1.00;;;;;;2614856;54;20200;-75
2023/06/12 08:51:20;;;;;;;20.70;19.50;;;28.30;1.00;;;;;;2614857;54;20411;-75
2023/06/12 08:57:08;;;;;;;19.67;18.67;;;29.30;1.00;;;;;;2613807;54;20363;-74
2023/06/12 09:02:57;;;;;;;19.63;18.57;;;29.80;1.00;;;;;;2614727;54;20359;-74
2023/06/12 09:08:45;;;;;;;22.43;21.10;;;29.40;1.00;;;;;;2615326;54;20388;-74
2023/06/12 09:14:34;;;;;;;21.00;19.70;;;29.60;1.00;;;;;;2614957;54;20557;-74
2023/06/12 09:20:27;;;;;;;21.07;19.70;;;30.10;1.00;;;;;;2613886;54;20449;-74
2023/06/12 09:26:15;;;;;;;22.13;20.87;;;30.20;1.00;;;;;;2614756;54;20415;-74
2023/06/12 09:32:05;;;;;;;22.17;20.97;;;30.70;1.00;;;;;;2614738;54;20423;-74
2023/06/12 09:37:53;;;;;;;21.60;20.60;;;30.20;1.00;;;;;;2613373;54;20925;-74
2023/06/12 09:43:40;;;;;;;23.27;22.07;;;29.80;1.00;;;;;;2614662;54;20404;-75
2023/06/12 09:49:30;;;;;;;22.50;21.50;;;30.10;1.00;;;;;;2614691;54;20154;-74
2023/06/12 09:55:18;;;;;;;20.83;19.70;;;30.60;1.00;;;;;;2615186;54;20411;-74
2023/06/12 10:01:07;;;;;;;20.47;19.47;;;30.30;1.00;;;;;;2614663;54;20383;-75
2023/06/12 10:07:01;;;;;;;21.23;20.23;;;30.60;1.00;;;;;;2612926;54;20392;-75
2023/06/12 10:16:48;;;;;;;20.27;18.87;;;31.10;1.00;;;;;;2614146;54;20374;-75
2023/06/12 10:22:36;;;;;;;18.53;17.53;;;30.70;1.00;;;;;;2614526;54;20395;-74
2023/06/12 10:28:24;;;;;;;21.37;20.30;;;30.90;1.00;;;;;;2614418;54;20391;-70
2023/06/12 10:34:15;;;;;;;21.60;20.60;;;31.60;1.00;;;;;;2615555;39;20506;-69
2023/06/12 10:40:20;;;;;;;21.87;20.80;;;31.30;1.00;;;;;;2615242;54;20554;-70
2023/06/12 10:46:11;;;;;;;21.40;20.40;;;31.10;1.00;;;;;;2615560;39;20880;-70
2023/06/12 10:52:00;;;;;;;21.83;20.70;;;31.30;1.00;;;;;;2614959;54;20398;-70
2023/06/12 10:57:59;;;;;;;21.50;20.40;;;30.70;1.00;;;;;;2614955;54;20910;-70
2023/06/12 11:03:50;;;;;;;21.17;20.17;;;31.50;1.00;;;;;;2615617;54;20415;-74
2023/06/12 11:09:41;;;;;;;21.03;20.03;;;31.20;1.00;;;;;;2615262;54;20411;-75
2023/06/12 11:12:20;;;;;;;20.27;19.37;;;30.90;1.00;;;;;;2615247;54;20450;-76
2023/06/12 11:14:45;;;;;;;21.27;20.17;;;30.00;1.00;;;;;;2613799;54;20403;-75
2023/06/12 11:20:33;;;;;;;20.57;19.50;;;30.10;1.00;;;;;;2615304;54;20150;-74
2023/06/12 11:26:21;;;;;;;20.50;19.50;;;30.60;1.00;;;;;;2615281;54;20146;-75
2023/06/12 11:32:09;;;;;;;20.77;19.67;;;29.30;1.00;;;;;;2615225;54;20161;-75
2023/06/12 11:37:57;;;;;;;22.23;21.13;;;30.30;1.00;;;;;;2615543;39;20442;-75
2023/06/12 11:43:45;;;;;;;23.37;21.67;;;30.00;1.00;;;;;;2615032;54;20131;-75
2023/06/12 11:49:37;;;;;;;20.53;19.40;;;32.60;1.00;;;;;;2614696;54;20130;-75
2023/06/12 11:55:25;;;;;;;23.37;22.03;;;32.00;1.00;;;;;;2615039;54;20927;-76
2023/06/12 12:01:22;;;;;;;22.37;21.37;;;31.20;1.00;;;;;;2615354;39;20557;-75
2023/06/12 12:07:10;;;;;;;22.50;20.80;;;31.50;1.00;;;;;;2614733;54;20431;-75
2023/06/12 12:16:48;;;;;;;22.37;21.17;;;32.70;1.00;;;;;;2614090;54;20380;-75
2023/06/12 12:22:40;;;;;;;21.50;20.30;;;32.80;1.00;;;;;;2614930;54;20403;-74
2023/06/12 12:28:28;;;;;;;22.87;21.77;;;32.90;1.00;;;;;;2613835;54;20433;-74
2023/06/12 12:34:16;;;;;;;23.10;21.90;;;32.70;1.00;;;;;;2615422;46;20165;-74
2023/06/12 12:40:09;;;;;;;21.83;20.70;;;30.80;1.00;;;;;;2614915;54;20159;-75
2023/06/12 12:45:56;;;;;;;22.23;21.13;;;31.80;1.00;;;;;;2613891;54;20485;-74
2023/06/12 12:51:44;;;;;;;23.67;21.87;;;32.10;1.00;;;;;;2615326;39;20297;-74
2023/06/12 12:57:34;;;;;;;21.87;20.53;;;32.30;1.00;;;;;;2615216;54;20142;-74
2023/06/12 13:03:22;;;;;;;23.93;22.67;;;30.90;1.00;;;;;;2615143;54;20410;-74
2023/06/12 13:09:10;;;;;;;22.83;21.23;;;31.70;1.00;;;;;;2615281;54;20162;-74
2023/06/12 13:12:19;;;;;;;23.30;21.70;;;31.60;1.00;;;;;;2614184;47;20416;-74
2023/06/12 13:14:45;;;;;;;21.87;20.67;;;31.40;1.00;;;;;;2614150;47;20708;-74
2023/06/12 13:20:33;;;;;;;22.17;20.97;;;31.50;1.00;;;;;;2614537;54;20520;-74
2023/06/12 13:26:22;;;;;;;21.13;20.03;;;31.70;1.00;;;;;;2615004;46;20186;-74
2023/06/12 13:32:10;;;;;;;23.13;21.90;;;30.90;1.00;;;;;;2614969;54;20407;-75
2023/06/12 13:37:58;;;;;;;22.10;20.80;;;31.50;1.00;;;;;;2614248;54;21066;-74
2023/06/12 13:43:46;;;;;;;22.67;21.30;;;30.80;1.00;;;;;;2615095;54;20170;-73
2023/06/12 13:49:34;;;;;;;23.70;22.40;;;32.10;1.00;;;;;;2614626;46;20142;-74
2023/06/12 13:55:21;;;;;;;24.20;23.00;;;31.20;1.00;;;;;;2614088;54;20505;-74
2023/06/12 14:01:09;;;;;;;22.17;21.07;;;31.10;1.00;;;;;;2613521;54;20243;-73
2023/06/12 14:06:58;;;;;;;22.23;20.93;;;31.50;1.00;;;;;;2614589;54;20121;-74
2023/06/12 14:16:48;;;;;;;22.17;20.97;;;31.30;1.00;;;;;;2614973;54;20925;-74
2023/06/12 14:22:36;;;;;;;21.97;20.67;;;31.40;1.00;;;;;;2614475;54;20532;-74
2023/06/12 14:28:24;;;;;;;21.70;20.40;;;31.70;1.00;;;;;;2614653;54;20126;-74
2023/06/12 14:34:12;;;;;;;21.20;19.90;;;31.00;1.00;;;;;;2614738;54;20640;-74
2023/06/12 14:39:59;;;;;;;21.00;19.83;;;31.10;1.00;;;;;;2614779;54;20143;-75
2023/06/12 14:45:47;;;;;;;22.27;21.07;;;31.40;1.00;;;;;;2615310;39;20548;-75
2023/06/12 14:51:35;;;;;;;21.80;20.60;;;30.80;1.00;;;;;;2615046;54;20657;-74
2023/06/12 14:57:23;;;;;;;20.70;19.60;;;31.00;1.00;;;;;;2614490;54;20126;-74
2023/06/12 15:03:10;;;;;;;20.93;19.93;;;31.10;1.00;;;;;;2614390;54;20711;-74
2023/06/12 15:08:58;;;;;;;21.67;20.37;;;30.50;1.00;;;;;;2614596;54;20242;-74
2023/06/12 15:12:19;;;;;;;21.43;20.33;;;30.70;1.00;;;;;;2614783;54;20431;-74
2023/06/12 15:14:45;;;;;;;20.80;19.53;;;31.10;1.00;;;;;;2615381;54;20151;-75
2023/06/12 15:20:33;;;;;;;22.27;21.03;;;30.40;1.00;;;;;;2613788;54;20171;-74
2023/06/12 15:26:20;;;;;;;22.77;21.50;;;30.40;1.00;;;;;;2614252;54;20133;-75
2023/06/12 15:32:08;;;;;;;21.63;20.43;;;30.00;1.00;;;;;;2614258;54;20134;-74
2023/06/12 15:44:45;;;;;;;20.40;19.30;;;30.10;1.00;;;;;;2615142;54;20387;-74
2023/06/12 15:50:33;;;;;;;22.00;20.70;;;29.70;1.00;;;;;;2614980;54;20427;-74
2023/06/12 15:56:20;;;;;;;22.57;20.80;;;30.20;1.00;;;;;;2615677;39;20627;-73
2023/06/12 16:02:08;;;;;;;20.40;19.40;;;30.50;1.00;;;;;;2614975;54;20131;-69
2023/06/12 16:07:56;;;;;;;20.60;19.60;;;30.70;1.00;;;;;;2615261;54;20139;-68
2023/06/12 16:17:06;;;;;;;22.93;21.73;;;30.50;1.00;;;;;;2614948;54;20410;-69
2023/06/12 16:22:54;;;;;;;24.83;23.03;;;30.30;1.00;;;;;;2614973;54;20387;-69
2023/06/12 16:28:42;;;;;;;22.27;21.07;;;30.20;1.00;;;;;;2614858;54;20933;-69
2023/06/12 16:34:30;;;;;;;20.40;19.20;;;29.70;1.00;;;;;;2614976;39;20522;-69
2023/06/12 16:40:17;;;;;;;21.00;19.90;;;29.30;1.00;;;;;;2614685;54;20753;-68
2023/06/12 16:46:05;;;;;;;20.87;19.77;;;29.00;1.00;;;;;;2615321;54;20143;-69
2023/06/12 16:51:53;;;;;;;21.23;20.13;;;29.00;1.00;;;;;;2611175;54;20114;-69
2023/06/12 16:57:40;;;;;;;21.30;20.10;;;29.30;1.00;;;;;;2614408;54;20185;-68
2023/06/12 17:03:28;;;;;;;21.60;20.27;;;28.80;1.00;;;;;;2614429;54;20126;-69
2023/06/12 17:09:16;;;;;;;22.33;21.23;;;28.80;1.00;;;;;;2614327;54;20130;-69
2023/06/12 17:15:17;;;;;;;22.60;20.40;;;28.80;1.00;;;;;;2612001;54;20131;-68
2023/06/12 17:21:05;;;;;;;22.30;20.90;;;28.60;1.00;;;;;;2612654;54;20175;-68
2023/06/12 17:26:51;;;;;;;21.43;20.23;;;28.30;1.00;;;;;;2613045;54;20157;-68
2023/06/12 17:32:38;;;;;;;21.40;20.17;;;28.10;1.00;;;;;;2611545;54;20151;-69
2023/06/12 17:38:28;;;;;;;21.00;19.90;;;28.00;1.00;;;;;;2613140;54;20226;-68
2023/06/12 17:44:15;;;;;;;24.70;22.70;;;27.70;1.00;;;;;;2612583;54;20407;-69
2023/06/12 17:50:03;;;;;;;23.53;21.80;;;27.40;1.00;;;;;;2611600;54;20130;-69
2023/06/12 17:55:51;;;;;;;26.33;24.00;;;27.20;1.00;;;;;;2613813;54;20506;-69
2023/06/12 18:01:39;;;;;;;22.63;21.10;;;26.80;1.00;;;;;;2613966;54;20141;-68
2023/06/12 18:07:27;;;;;;;24.27;22.20;;;26.60;1.00;;;;;;2614389;54;20133;-69
2023/06/12 18:17:05;;;;;;;21.57;20.47;;;26.50;1.00;;;;;;2613244;54;20455;-69
2023/06/12 18:22:52;;;;;;;21.77;20.57;;;26.30;1.00;;;;;;2614480;54;20443;-69
2023/06/12 18:28:40;;;;;;;20.40;19.20;;;26.10;1.00;;;;;;2612676;54;20122;-69
2023/06/12 18:34:28;;;;;;;20.43;19.07;;;26.00;1.00;;;;;;2614629;54;20127;-69
2023/06/12 18:40:17;;;;;;;21.23;19.93;;;25.80;1.00;;;;;;2615009;39;20782;-71
2023/06/12 18:46:05;;;;;;;20.10;19.00;;;25.70;1.00;;;;;;2614995;54;20964;-69
2023/06/12 18:51:53;;;;;;;20.90;19.77;;;25.50;1.00;;;;;;2615344;39;20587;-69
2023/06/12 18:57:41;;;;;;;20.57;19.30;;;25.40;1.00;;;;;;2614905;54;20133;-69
2023/06/12 19:03:32;;;;;;;21.37;20.17;;;25.20;1.00;;;;;;2615051;46;20600;-68
2023/06/12 19:09:19;;;;;;;21.30;19.80;;;25.00;1.00;;;;;;2614908;54;20368;-69
2023/06/12 19:15:08;;;;;;;19.57;18.57;;;24.90;1.00;;;;;;2614792;54;20130;-68
2023/06/12 19:20:56;;;;;;;20.80;19.70;;;24.70;1.00;;;;;;2614957;54;20475;-69
2023/06/12 19:26:44;;;;;;;20.73;19.43;;;24.60;1.00;;;;;;2614964;54;20151;-68
2023/06/12 19:32:33;;;;;;;19.43;18.40;;;24.40;1.00;;;;;;2614824;54;20138;-69
2023/06/12 19:38:21;;;;;;;20.17;19.07;;;24.20;1.00;;;;;;2614038;39;20824;-70
2023/06/12 19:44:09;;;;;;;20.93;19.73;;;24.00;1.00;;;;;;2614961;54;20151;-69
2023/06/12 19:49:57;;;;;;;21.70;20.07;;;24.00;1.00;;;;;;2615102;54;20162;-69
2023/06/12 19:55:45;;;;;;;19.63;18.63;;;23.60;1.00;;;;;;2614625;54;20219;-66
2023/06/12 20:01:32;;;;;;;20.70;19.43;;;23.60;1.00;;;;;;2613919;54;20134;-69
2023/06/12 20:07:20;;;;;;;20.37;19.20;;;23.50;1.00;;;;;;2615319;54;20372;-69
2023/06/12 20:10:23;;;;;;;20.23;19.03;;;23.30;1.00;;;;;;2614574;54;20599;-68
2023/06/12 20:12:49;;;;;;;20.80;19.50;;;23.20;1.00;;;;;;2614631;54;20150;-69
2023/06/12 20:21:59;;;;;;;20.33;19.37;;;23.10;1.00;;;;;;2612313;54;20516;-72
2023/06/12 20:27:47;;;;;;;19.80;18.80;;;23.00;1.00;;;;;;2614685;54;20182;-72
2023/06/12 20:33:34;;;;;;;20.10;19.00;;;22.80;1.00;;;;;;2615131;39;20505;-71
2023/06/12 20:39:22;;;;;;;20.17;19.00;;;22.50;1.00;;;;;;2613528;54;20122;-72
2023/06/12 20:45:10;;;;;;;20.40;19.30;;;22.30;1.00;;;;;;2615037;54;20138;-71
2023/06/12 20:50:59;;;;;;;20.40;19.40;;;22.00;1.00;;;;;;2615621;31;20777;-71
2023/06/12 20:56:49;;;;;;;20.50;19.40;;;22.00;1.00;;;;;;2614762;54;20398;-72
2023/06/12 21:02:38;;;;;;;20.60;19.60;;;21.80;1.00;;;;;;2614929;54;20379;-72
2023/06/12 21:08:25;;;;;;;21.00;19.77;;;21.80;1.00;;;;;;2614760;54;20362;-71
2023/06/12 21:14:17;;;;;;;20.10;19.10;;;21.60;1.00;;;;;;2614790;54;20147;-72
2023/06/12 21:17:22;;;;;;;21.23;20.13;;;21.50;1.00;;;;;;2615091;54;20464;-72
2023/06/12 21:19:47;;;;;;;19.93;19.00;;;21.40;1.00;;;;;;2614445;54;20462;-72
2023/06/12 21:25:35;;;;;;;22.20;20.43;;;21.30;1.00;;;;;;2614817;54;20173;-71
2023/06/12 21:31:29;;;;;;;20.97;19.47;;;21.30;1.00;;;;;;2613793;54;20664;-71
2023/06/12 21:37:17;;;;;;;21.00;19.87;;;21.20;1.00;;;;;;2615106;39;20798;-72
2023/06/12 21:43:04;;;;;;;20.43;19.33;;;21.10;1.00;;;;;;2613851;54;20142;-72
2023/06/12 21:48:52;;;;;;;20.60;19.50;;;20.90;1.00;;;;;;2614664;54;20127;-72
2023/06/12 21:54:40;;;;;;;20.10;19.07;;;20.70;1.00;;;;;;2614703;54;20142;-71
2023/06/12 22:00:28;;;;;;;20.60;19.33;;;20.60;1.00;;;;;;2614062;54;20161;-72
2023/06/12 22:06:16;;;;;;;21.60;19.97;;;20.40;1.00;;;;;;2613743;54;20255;-72
2023/06/12 22:12:05;;;;;;;21.03;19.83;;;20.30;1.00;;;;;;2614803;54;20163;-72
2023/06/12 22:21:52;;;;;;;21.33;20.13;;;20.10;1.00;;;;;;2615643;54;20391;-71
2023/06/12 22:27:40;;;;;;;20.77;19.67;;;20.00;1.40;;;;;;2615661;54;20427;-72
2023/06/12 22:33:27;;;;;;;20.57;19.47;;;19.70;2.60;;;;;;2614955;54;20162;-71
2023/06/12 22:39:15;;;;;;;21.03;19.80;;;19.40;5.00;;;;;;2615277;54;20186;-72
2023/06/12 22:45:04;;;;;;;21.80;20.47;;;19.20;6.70;;;;;;2615574;46;20386;-71
2023/06/12 22:50:52;;;;;;;21.67;20.43;;;19.20;7.00;;;;;;2614208;54;20359;-71
2023/06/12 22:56:41;;;;;;;21.73;20.40;;;19.00;10.70;;;;;;2615436;54;20232;-72
2023/06/12 23:02:28;;;;;;;21.30;20.13;;;18.80;12.30;;;;;;2615253;54;20390;-72
2023/06/12 23:15:00;;;;;;;23.53;19.40;;;18.50;16.30;;;;;;2615138;54;20950;-72
2023/06/12 23:20:49;;;;;;;21.43;19.67;;;18.30;18.50;;;;;;2615474;46;20186;-72
2023/06/12 23:26:40;;;;;;;19.83;18.83;;;18.20;21.40;;;;;;2613583;54;20314;-71
2023/06/12 23:32:27;;;;;;;20.03;19.03;;;18.20;19.70;;;;;;2614324;54;20468;-71
2023/06/12 23:38:15;;;;;;;20.77;19.53;;;18.00;21.10;;;;;;2613722;39;20542;-71
2023/06/12 23:44:03;;;;;;;20.87;19.70;;;17.90;23.00;;;;;;2614151;54;20134;-72
2023/06/12 23:49:51;;;;;;;21.37;19.93;;;17.90;22.70;;;;;;2614010;54;20127;-71
2023/06/12 23:55:38;;;;;;;20.30;19.30;;;17.60;27.10;;;;;;2613908;54;20131;-71
